Flight Track Log - Related Links

Times and Time Zones

All times are in EDT time to prevent confusion due to time zone crossing. See the N53NW flight status page for this flight to view local times or setup timezone preferences in your user account.

Time Position Orientation Groundspeed Altitude Reporting Facility
EDT Latitude Longitude Course Direction KTS MPH feet Rate Location/Type
Fri 07:47:57 PM 34.4128 -83.4875 147° Southeast 346 398 3,700  Level Atlanta Center
Fri 07:48:57 PM 34.3769 -83.4119 120° Southeast 280 322 6,600 2,900 Climbing Atlanta Center
Fri 07:49:57 PM 34.3431 -83.3242 115° Southeast 271 312 9,500 2,850 Climbing Atlanta Center
Fri 07:50:57 PM 34.3031 -83.2367 119° Southeast 282 325 12,300 2,700 Climbing Atlanta Center
Fri 07:51:57 PM 34.2647 -83.1489 118° Southeast 292 336 14,900 2,300 Climbing Atlanta Center
Fri 07:52:00 PM 34.3227 -83.1498 119° Southeast  Level Estimated
Fri 07:52:57 PM 34.2139 -83.0592 124° Southeast 297 342 16,900  Level Atlanta Center
Fri 07:53:57 PM 34.1569 -82.9594 125° Southeast 331 381 17,900 1,300 Climbing Atlanta Center
Fri 07:54:57 PM 34.1058 -82.8647 123° Southeast 340 391 19,500 1,500 Climbing Atlanta Center
Fri 07:55:57 PM 34.0422 -82.7653 128° Southeast 356 410 20,900 750 Climbing Atlanta Center
Fri 07:56:57 PM 33.9869 -82.6608 123° Southeast 363 418 21,000 50 Climbing Atlanta Center
Fri 07:57:57 PM 33.9253 -82.5592 126° Southeast 368 423 21,000  Level Atlanta Center
Fri 07:58:57 PM 33.8717 -82.4550 122° Southeast 375 432 21,000  Level Atlanta Center
Fri 07:59:57 PM 33.8139 -82.3561 125° Southeast 375 432 21,000  Level Atlanta Center
Fri 08:01:42 PM 33.7133 -82.1733 123° Southeast 366 421 21,000  Level Jacksonville Center
Fri 08:02:42 PM 33.6750 -82.0614 112° Southeast 366 421 21,000  Level Jacksonville Center
Fri 08:03:42 PM 33.6389 -81.9469 111° Southeast 361 415 21,000  Level Jacksonville Center
Fri 08:04:42 PM 33.6025 -81.8353 111° Southeast 361 415 21,000 -200 Level Jacksonville Center
Fri 08:05:42 PM 33.5658 -81.7211 111° Southeast 361 415 20,600 -800 Descending Jacksonville Center
Fri 08:06:42 PM 33.5314 -81.6094 110° East 356 410 19,400 -1,250 Descending Jacksonville Center
Fri 08:07:42 PM 33.4969 -81.5028 111° Southeast 351 404 18,100 -1,250 Descending Jacksonville Center
Fri 08:08:42 PM 33.4667 -81.3986 109° East 340 391 16,900 -1,400 Descending Jacksonville Center
Fri 08:09:42 PM 33.4339 -81.2997 112° Southeast 328 377 15,300 -1,550 Descending Jacksonville Center
Fri 08:10:42 PM 33.4014 -81.2031 112° Southeast 323 372 13,800 -1,500 Descending Jacksonville Center
Fri 08:11:42 PM 33.3708 -81.1019 110° East 323 372 12,300 -1,450 Descending Jacksonville Center
Fri 08:12:42 PM 33.3381 -81.0081 113° Southeast 318 366 10,900 -700 Descending Jacksonville Center
Fri 08:13:42 PM 33.3097 -80.9167 110° East 300 345 10,900  Level Jacksonville Center
Fri 08:14:42 PM 33.2811 -80.8203 110° East 295 339 10,900  Level Jacksonville Center
Fri 08:15:42 PM 33.2481 -80.7292 113° Southeast 295 339 10,900 -250 Level Jacksonville Center
Fri 08:16:42 PM 33.2172 -80.6381 112° Southeast 295 339 10,400 -1,100 Descending Jacksonville Center
Fri 08:17:42 PM 33.1803 -80.5522 117° Southeast 290 334 8,700 -1,250 Descending Jacksonville Center
Fri 08:18:42 PM 33.1433 -80.4689 118° Southeast 283 326 7,900 -1,100 Descending Jacksonville Center
Fri 08:19:42 PM 33.1061 -80.3906 120° Southeast 277 319 6,500 -1,650 Descending Jacksonville Center
Fri 08:20:42 PM 33.0736 -80.3194 119° Southeast 251 289 4,600 -1,750 Descending Jacksonville Center
Fri 08:21:42 PM 33.0450 -80.2558 118° Southeast 238 274 3,000 -850 Descending Jacksonville Center
Fri 08:22:42 PM 33.0231 -80.2044 117° Southeast 207 238 2,900 -750 Descending Jacksonville Center
Fri 08:23:42 PM 32.9989 -80.1483 117° Southeast 194 223 1,500 -1,400 Descending Jacksonville Center
Fri 08:25:00 PM 32.9165 -80.0598 40° Northeast  Level Estimated
Fri 08:32:00 PM 32.8986 -80.0405 79° East  Level Estimated
Fri 08:33:00 PM 32.8986 -80.0405 79° East  Level Estimated
Fri 08:34:00 PM 32.8986 -80.0405 79° East  Level Estimated
Fri 08:35:00 PM 32.8986 -80.0405 79° East  Level Estimated

Login

Don't have an account? Register now (free) for customized features, flight alerts, and more!